Terminal Aerodrome Forecast
Issued by NWS Blacksburg, VA

Current Version | Previous Version | Graphics & Text | Print | Product List | Glossary On
Versions: 1 2 3 4 5 6 7 8 9 10 11 12 13 14 15
000
FTUS41 KRNK 211130
TAFBLF
TAF
KBLF 211130Z 2112/2212 26005KT P6SM BKN006 OVC013
     FM211400 27010KT 2SM -SHRA BR OVC007
     FM211700 28008KT 5SM -SHRA SCT015 BKN050
     FM212000 29009KT P6SM BKN020
     FM220000 28007KT P6SM OVC012
     FM220600 29005KT P6SM OVC009=

USA.gov is the U.S. government's official web portal to all federal, state and local government web resources and services.